sensor_id;sensor_type;location;lat;lon;timestamp;temperature;humidity
12434;DHT22;6281;49.038;8.372;2023-03-26T00:00:06;9.40;99.90
12434;DHT22;6281;49.038;8.372;2023-03-26T00:02:39;9.40;99.90
12434;DHT22;6281;49.038;8.372;2023-03-26T00:05:07;9.30;99.90
12434;DHT22;6281;49.038;8.372;2023-03-26T00:07:34;9.20;99.90
12434;DHT22;6281;49.038;8.372;2023-03-26T00:10:01;9.40;99.90
12434;DHT22;6281;49.038;8.372;2023-03-26T00:12:30;9.40;99.90
12434;DHT22;6281;49.038;8.372;2023-03-26T00:14:57;9.50;99.90
12434;DHT22;6281;49.038;8.372;2023-03-26T00:17:24;9.50;99.90
12434;DHT22;6281;49.038;8.372;2023-03-26T00:19:51;9.40;99.90
12434;DHT22;6281;49.038;8.372;2023-03-26T00:22:18;9.30;99.90
12434;DHT22;6281;49.038;8.372;2023-03-26T00:24:45;9.40;99.90
12434;DHT22;6281;49.038;8.372;2023-03-26T00:27:13;9.40;99.90
12434;DHT22;6281;49.038;8.372;2023-03-26T00:29:42;9.40;99.90
12434;DHT22;6281;49.038;8.372;2023-03-26T00:32:09;9.50;99.90
12434;DHT22;6281;49.038;8.372;2023-03-26T00:34:36;9.40;99.90
12434;DHT22;6281;49.038;8.372;2023-03-26T00:37:05;9.50;99.90
12434;DHT22;6281;49.038;8.372;2023-03-26T00:39:33;9.50;99.90
12434;DHT22;6281;49.038;8.372;2023-03-26T00:42:01;9.50;99.90
12434;DHT22;6281;49.038;8.372;2023-03-26T00:44:31;9.50;99.90
12434;DHT22;6281;49.038;8.372;2023-03-26T00:47:00;9.50;99.90
12434;DHT22;6281;49.038;8.372;2023-03-26T00:49:28;9.50;99.90
12434;DHT22;6281;49.038;8.372;2023-03-26T00:51:55;9.50;99.90
12434;DHT22;6281;49.038;8.372;2023-03-26T00:54:22;9.50;99.90
12434;DHT22;6281;49.038;8.372;2023-03-26T00:56:49;9.50;99.90
12434;DHT22;6281;49.038;8.372;2023-03-26T00:59:20;9.60;99.90
12434;DHT22;6281;49.038;8.372;2023-03-26T01:01:47;9.70;99.90
12434;DHT22;6281;49.038;8.372;2023-03-26T01:04:23;9.70;99.90
12434;DHT22;6281;49.038;8.372;2023-03-26T01:06:51;9.70;99.90
12434;DHT22;6281;49.038;8.372;2023-03-26T01:09:21;9.60;99.90
12434;DHT22;6281;49.038;8.372;2023-03-26T01:11:50;9.60;99.90
12434;DHT22;6281;49.038;8.372;2023-03-26T01:14:19;9.60;99.90
12434;DHT22;6281;49.038;8.372;2023-03-26T01:16:51;9.60;99.90
12434;DHT22;6281;49.038;8.372;2023-03-26T01:19:24;9.70;99.90
12434;DHT22;6281;49.038;8.372;2023-03-26T01:21:53;9.70;99.90
12434;DHT22;6281;49.038;8.372;2023-03-26T01:24:22;9.70;99.90
12434;DHT22;6281;49.038;8.372;2023-03-26T01:29:41;9.70;99.90
12434;DHT22;6281;49.038;8.372;2023-03-26T01:32:21;9.80;99.90
12434;DHT22;6281;49.038;8.372;2023-03-26T01:35:01;9.80;99.90
12434;DHT22;6281;49.038;8.372;2023-03-26T01:37:37;9.70;99.90
12434;DHT22;6281;49.038;8.372;2023-03-26T01:40:12;9.70;99.90
12434;DHT22;6281;49.038;8.372;2023-03-26T01:42:45;9.70;99.90
12434;DHT22;6281;49.038;8.372;2023-03-26T01:45:15;9.70;99.90
12434;DHT22;6281;49.038;8.372;2023-03-26T01:47:44;9.60;99.90
12434;DHT22;6281;49.038;8.372;2023-03-26T01:50:12;9.80;99.90
12434;DHT22;6281;49.038;8.372;2023-03-26T01:52:39;9.70;99.90
12434;DHT22;6281;49.038;8.372;2023-03-26T01:55:08;9.70;99.90
12434;DHT22;6281;49.038;8.372;2023-03-26T01:57:46;9.60;99.90
12434;DHT22;6281;49.038;8.372;2023-03-26T02:00:21;9.70;99.90
12434;DHT22;6281;49.038;8.372;2023-03-26T02:03:03;9.70;99.90
12434;DHT22;6281;49.038;8.372;2023-03-26T02:05:37;9.60;99.90
12434;DHT22;6281;49.038;8.372;2023-03-26T02:08:14;9.70;99.90
12434;DHT22;6281;49.038;8.372;2023-03-26T02:10:50;9.60;99.90
12434;DHT22;6281;49.038;8.372;2023-03-26T02:13:18;9.70;99.90
12434;DHT22;6281;49.038;8.372;2023-03-26T02:15:54;9.60;99.90
12434;DHT22;6281;49.038;8.372;2023-03-26T02:18:21;9.60;99.90
12434;DHT22;6281;49.038;8.372;2023-03-26T02:20:49;9.60;99.90
12434;DHT22;6281;49.038;8.372;2023-03-26T02:23:18;9.50;99.90
12434;DHT22;6281;49.038;8.372;2023-03-26T02:25:47;9.50;99.90
12434;DHT22;6281;49.038;8.372;2023-03-26T02:28:14;9.60;99.90
12434;DHT22;6281;49.038;8.372;2023-03-26T02:30:41;9.60;99.90
12434;DHT22;6281;49.038;8.372;2023-03-26T02:33:10;9.50;99.90
12434;DHT22;6281;49.038;8.372;2023-03-26T02:35:40;9.50;99.90
12434;DHT22;6281;49.038;8.372;2023-03-26T02:38:10;9.40;99.90
12434;DHT22;6281;49.038;8.372;2023-03-26T02:40:39;9.40;99.90
12434;DHT22;6281;49.038;8.372;2023-03-26T02:43:07;9.30;99.90
12434;DHT22;6281;49.038;8.372;2023-03-26T02:45:34;9.50;99.90
12434;DHT22;6281;49.038;8.372;2023-03-26T02:48:01;9.30;99.90
12434;DHT22;6281;49.038;8.372;2023-03-26T02:50:28;9.40;99.90
12434;DHT22;6281;49.038;8.372;2023-03-26T02:52:57;9.50;99.90
12434;DHT22;6281;49.038;8.372;2023-03-26T02:55:24;9.50;99.90
12434;DHT22;6281;49.038;8.372;2023-03-26T02:57:51;9.40;99.90
12434;DHT22;6281;49.038;8.372;2023-03-26T03:00:20;9.40;99.90
12434;DHT22;6281;49.038;8.372;2023-03-26T03:02:47;9.40;99.90
12434;DHT22;6281;49.038;8.372;2023-03-26T03:05:14;9.50;99.90
12434;DHT22;6281;49.038;8.372;2023-03-26T03:07:42;9.40;99.90
12434;DHT22;6281;49.038;8.372;2023-03-26T03:10:11;9.40;99.90
12434;DHT22;6281;49.038;8.372;2023-03-26T03:12:39;9.40;99.90
12434;DHT22;6281;49.038;8.372;2023-03-26T03:15:07;9.40;99.90
12434;DHT22;6281;49.038;8.372;2023-03-26T03:17:36;9.40;99.90
12434;DHT22;6281;49.038;8.372;2023-03-26T03:20:04;9.40;99.90
12434;DHT22;6281;49.038;8.372;2023-03-26T03:22:33;9.30;99.90
12434;DHT22;6281;49.038;8.372;2023-03-26T03:25:00;9.40;99.90
12434;DHT22;6281;49.038;8.372;2023-03-26T03:27:27;9.50;99.90
12434;DHT22;6281;49.038;8.372;2023-03-26T03:29:55;9.50;99.90
12434;DHT22;6281;49.038;8.372;2023-03-26T03:32:23;9.40;99.90
12434;DHT22;6281;49.038;8.372;2023-03-26T03:34:52;9.40;99.90
12434;DHT22;6281;49.038;8.372;2023-03-26T03:37:19;9.40;99.90
12434;DHT22;6281;49.038;8.372;2023-03-26T03:39:46;9.40;99.90
12434;DHT22;6281;49.038;8.372;2023-03-26T03:42:13;9.40;99.90
12434;DHT22;6281;49.038;8.372;2023-03-26T03:44:40;9.50;99.90
12434;DHT22;6281;49.038;8.372;2023-03-26T03:47:06;9.60;99.90
12434;DHT22;6281;49.038;8.372;2023-03-26T03:49:38;9.50;99.90
12434;DHT22;6281;49.038;8.372;2023-03-26T03:52:06;9.50;99.90
12434;DHT22;6281;49.038;8.372;2023-03-26T03:54:33;9.50;99.90
12434;DHT22;6281;49.038;8.372;2023-03-26T03:57:00;9.50;99.90
12434;DHT22;6281;49.038;8.372;2023-03-26T03:59:27;9.60;99.90
12434;DHT22;6281;49.038;8.372;2023-03-26T04:01:54;9.50;99.90
12434;DHT22;6281;49.038;8.372;2023-03-26T04:04:21;9.60;99.90
12434;DHT22;6281;49.038;8.372;2023-03-26T04:06:49;9.80;99.90
12434;DHT22;6281;49.038;8.372;2023-03-26T04:09:18;9.80;99.90
12434;DHT22;6281;49.038;8.372;2023-03-26T04:11:45;9.80;99.90
12434;DHT22;6281;49.038;8.372;2023-03-26T04:14:12;9.90;99.90
12434;DHT22;6281;49.038;8.372;2023-03-26T04:16:39;9.90;99.90
12434;DHT22;6281;49.038;8.372;2023-03-26T04:19:06;10.00;99.90
12434;DHT22;6281;49.038;8.372;2023-03-26T04:21:33;9.90;99.90
12434;DHT22;6281;49.038;8.372;2023-03-26T04:24:02;9.90;99.90
12434;DHT22;6281;49.038;8.372;2023-03-26T04:26:31;9.80;99.90
12434;DHT22;6281;49.038;8.372;2023-03-26T04:28:59;9.70;99.90
12434;DHT22;6281;49.038;8.372;2023-03-26T04:31:27;9.70;99.90
12434;DHT22;6281;49.038;8.372;2023-03-26T04:33:55;9.60;99.90
12434;DHT22;6281;49.038;8.372;2023-03-26T04:36:27;9.60;99.90
12434;DHT22;6281;49.038;8.372;2023-03-26T04:38:57;9.60;99.90
12434;DHT22;6281;49.038;8.372;2023-03-26T04:41:31;9.50;99.90
12434;DHT22;6281;49.038;8.372;2023-03-26T04:43:57;9.50;99.90
12434;DHT22;6281;49.038;8.372;2023-03-26T04:46:26;9.60;99.90
12434;DHT22;6281;49.038;8.372;2023-03-26T04:48:58;9.60;99.90
12434;DHT22;6281;49.038;8.372;2023-03-26T04:51:29;9.70;99.90
12434;DHT22;6281;49.038;8.372;2023-03-26T04:53:59;9.70;99.90
12434;DHT22;6281;49.038;8.372;2023-03-26T04:59:20;9.70;99.90
12434;DHT22;6281;49.038;8.372;2023-03-26T05:01:50;9.60;99.90
12434;DHT22;6281;49.038;8.372;2023-03-26T05:04:17;9.50;99.90
12434;DHT22;6281;49.038;8.372;2023-03-26T05:06:44;9.40;99.90
12434;DHT22;6281;49.038;8.372;2023-03-26T05:09:11;9.40;99.90
12434;DHT22;6281;49.038;8.372;2023-03-26T05:11:38;9.30;99.90
12434;DHT22;6281;49.038;8.372;2023-03-26T05:14:05;9.30;99.90
12434;DHT22;6281;49.038;8.372;2023-03-26T05:16:34;9.20;99.90
12434;DHT22;6281;49.038;8.372;2023-03-26T05:19:01;9.30;99.90
12434;DHT22;6281;49.038;8.372;2023-03-26T05:21:28;9.30;99.90
12434;DHT22;6281;49.038;8.372;2023-03-26T05:23:55;9.40;99.90
12434;DHT22;6281;49.038;8.372;2023-03-26T05:26:22;9.50;99.90
12434;DHT22;6281;49.038;8.372;2023-03-26T05:28:49;9.40;99.90
12434;DHT22;6281;49.038;8.372;2023-03-26T05:31:17;9.20;99.90
12434;DHT22;6281;49.038;8.372;2023-03-26T05:33:47;9.10;99.90
12434;DHT22;6281;49.038;8.372;2023-03-26T05:36:15;8.80;99.90
12434;DHT22;6281;49.038;8.372;2023-03-26T05:38:44;8.90;99.90
12434;DHT22;6281;49.038;8.372;2023-03-26T05:41:15;9.00;99.90
12434;DHT22;6281;49.038;8.372;2023-03-26T05:43:42;9.10;99.90
12434;DHT22;6281;49.038;8.372;2023-03-26T05:46:09;9.00;99.90
12434;DHT22;6281;49.038;8.372;2023-03-26T05:48:36;9.10;99.90
12434;DHT22;6281;49.038;8.372;2023-03-26T05:51:06;9.10;99.90
12434;DHT22;6281;49.038;8.372;2023-03-26T05:53:33;9.10;99.90
12434;DHT22;6281;49.038;8.372;2023-03-26T05:56:00;8.90;99.90
12434;DHT22;6281;49.038;8.372;2023-03-26T05:58:30;8.90;99.90
12434;DHT22;6281;49.038;8.372;2023-03-26T06:00:59;8.90;99.90
12434;DHT22;6281;49.038;8.372;2023-03-26T06:03:27;9.00;99.90
12434;DHT22;6281;49.038;8.372;2023-03-26T06:05:54;9.00;99.90
12434;DHT22;6281;49.038;8.372;2023-03-26T06:08:22;9.00;99.90
12434;DHT22;6281;49.038;8.372;2023-03-26T06:10:49;9.10;99.90
12434;DHT22;6281;49.038;8.372;2023-03-26T06:13:16;9.30;99.90
12434;DHT22;6281;49.038;8.372;2023-03-26T06:15:43;9.20;99.90
12434;DHT22;6281;49.038;8.372;2023-03-26T06:18:10;9.30;99.90
12434;DHT22;6281;49.038;8.372;2023-03-26T06:20:37;9.20;99.90
12434;DHT22;6281;49.038;8.372;2023-03-26T06:23:06;9.30;99.90
12434;DHT22;6281;49.038;8.372;2023-03-26T06:25:35;9.20;99.90
12434;DHT22;6281;49.038;8.372;2023-03-26T06:28:03;9.20;99.90
12434;DHT22;6281;49.038;8.372;2023-03-26T06:30:30;9.30;99.90
12434;DHT22;6281;49.038;8.372;2023-03-26T06:32:58;9.40;99.90
12434;DHT22;6281;49.038;8.372;2023-03-26T06:35:25;9.50;99.90
12434;DHT22;6281;49.038;8.372;2023-03-26T06:37:54;9.50;99.90
12434;DHT22;6281;49.038;8.372;2023-03-26T06:40:21;9.40;99.90
12434;DHT22;6281;49.038;8.372;2023-03-26T06:42:49;9.50;99.90
12434;DHT22;6281;49.038;8.372;2023-03-26T06:45:16;9.50;99.90
12434;DHT22;6281;49.038;8.372;2023-03-26T06:47:43;9.20;99.90
12434;DHT22;6281;49.038;8.372;2023-03-26T06:50:10;9.50;99.90
12434;DHT22;6281;49.038;8.372;2023-03-26T06:52:37;9.60;99.90
12434;DHT22;6281;49.038;8.372;2023-03-26T06:55:05;9.30;99.90
12434;DHT22;6281;49.038;8.372;2023-03-26T06:57:34;9.40;99.90
12434;DHT22;6281;49.038;8.372;2023-03-26T07:00:04;9.20;99.90
12434;DHT22;6281;49.038;8.372;2023-03-26T07:02:31;9.40;99.90
12434;DHT22;6281;49.038;8.372;2023-03-26T07:04:58;9.50;99.90
12434;DHT22;6281;49.038;8.372;2023-03-26T07:07:25;9.50;99.90
12434;DHT22;6281;49.038;8.372;2023-03-26T07:09:52;9.60;99.90
12434;DHT22;6281;49.038;8.372;2023-03-26T07:12:19;9.50;99.90
12434;DHT22;6281;49.038;8.372;2023-03-26T07:14:46;9.50;99.90
12434;DHT22;6281;49.038;8.372;2023-03-26T07:17:14;9.50;99.90
12434;DHT22;6281;49.038;8.372;2023-03-26T07:19:41;9.40;99.90
12434;DHT22;6281;49.038;8.372;2023-03-26T07:22:13;9.50;99.90
12434;DHT22;6281;49.038;8.372;2023-03-26T07:24:41;9.50;99.90
12434;DHT22;6281;49.038;8.372;2023-03-26T07:27:12;9.60;99.90
12434;DHT22;6281;49.038;8.372;2023-03-26T07:29:45;9.30;99.90
12434;DHT22;6281;49.038;8.372;2023-03-26T07:32:19;9.00;99.90
12434;DHT22;6281;49.038;8.372;2023-03-26T07:34:53;9.30;99.90
12434;DHT22;6281;49.038;8.372;2023-03-26T07:37:32;9.40;99.90
12434;DHT22;6281;49.038;8.372;2023-03-26T07:40:06;9.30;99.90
12434;DHT22;6281;49.038;8.372;2023-03-26T07:42:56;9.30;99.90
12434;DHT22;6281;49.038;8.372;2023-03-26T07:45:28;9.30;99.90
12434;DHT22;6281;49.038;8.372;2023-03-26T07:48:00;9.00;99.90
12434;DHT22;6281;49.038;8.372;2023-03-26T07:50:27;9.00;99.90
12434;DHT22;6281;49.038;8.372;2023-03-26T07:52:55;8.90;99.90
12434;DHT22;6281;49.038;8.372;2023-03-26T07:55:22;9.10;99.90
12434;DHT22;6281;49.038;8.372;2023-03-26T07:57:59;9.20;99.90
12434;DHT22;6281;49.038;8.372;2023-03-26T08:00:34;9.30;99.90
12434;DHT22;6281;49.038;8.372;2023-03-26T08:03:24;9.10;99.90
12434;DHT22;6281;49.038;8.372;2023-03-26T08:06:02;9.20;99.90
12434;DHT22;6281;49.038;8.372;2023-03-26T08:08:34;9.20;99.90
12434;DHT22;6281;49.038;8.372;2023-03-26T08:11:14;9.20;99.90
12434;DHT22;6281;49.038;8.372;2023-03-26T08:14:03;9.20;99.90
12434;DHT22;6281;49.038;8.372;2023-03-26T08:16:39;9.20;99.90
12434;DHT22;6281;49.038;8.372;2023-03-26T08:19:20;9.30;99.90
12434;DHT22;6281;49.038;8.372;2023-03-26T08:21:56;9.00;99.90
12434;DHT22;6281;49.038;8.372;2023-03-26T08:24:28;9.10;99.90
12434;DHT22;6281;49.038;8.372;2023-03-26T08:26:59;9.10;99.90
12434;DHT22;6281;49.038;8.372;2023-03-26T08:29:32;8.80;99.90
12434;DHT22;6281;49.038;8.372;2023-03-26T08:32:04;8.70;99.90
12434;DHT22;6281;49.038;8.372;2023-03-26T08:34:36;8.90;99.90
12434;DHT22;6281;49.038;8.372;2023-03-26T08:37:03;8.90;99.90
12434;DHT22;6281;49.038;8.372;2023-03-26T08:39:30;8.90;99.90
12434;DHT22;6281;49.038;8.372;2023-03-26T08:42:27;8.70;99.90
12434;DHT22;6281;49.038;8.372;2023-03-26T08:45:25;8.90;99.90
12434;DHT22;6281;49.038;8.372;2023-03-26T08:51:19;9.30;99.90
12434;DHT22;6281;49.038;8.372;2023-03-26T08:57:21;9.40;99.90
12434;DHT22;6281;49.038;8.372;2023-03-26T09:03:20;9.70;99.90
12434;DHT22;6281;49.038;8.372;2023-03-26T09:09:25;9.20;99.90
12434;DHT22;6281;49.038;8.372;2023-03-26T09:12:24;9.20;99.90
12434;DHT22;6281;49.038;8.372;2023-03-26T09:15:32;9.10;99.90
12434;DHT22;6281;49.038;8.372;2023-03-26T09:21:53;9.30;99.90
12434;DHT22;6281;49.038;8.372;2023-03-26T09:24:43;9.30;99.90
12434;DHT22;6281;49.038;8.372;2023-03-26T09:27:37;9.50;99.90
12434;DHT22;6281;49.038;8.372;2023-03-26T09:33:25;9.80;99.90
12434;DHT22;6281;49.038;8.372;2023-03-26T09:35:55;9.60;99.90
12434;DHT22;6281;49.038;8.372;2023-03-26T09:38:44;9.60;99.90
12434;DHT22;6281;49.038;8.372;2023-03-26T09:41:16;9.80;99.90
12434;DHT22;6281;49.038;8.372;2023-03-26T09:49:52;10.00;99.90
12434;DHT22;6281;49.038;8.372;2023-03-26T09:52:49;9.90;99.90
12434;DHT22;6281;49.038;8.372;2023-03-26T09:55:41;10.30;99.90
12434;DHT22;6281;49.038;8.372;2023-03-26T09:58:24;10.30;99.90
12434;DHT22;6281;49.038;8.372;2023-03-26T10:00:56;10.60;99.90
12434;DHT22;6281;49.038;8.372;2023-03-26T10:03:37;13.30;99.90
12434;DHT22;6281;49.038;8.372;2023-03-26T10:06:25;14.70;99.90
12434;DHT22;6281;49.038;8.372;2023-03-26T10:09:05;15.70;99.90
12434;DHT22;6281;49.038;8.372;2023-03-26T10:12:01;14.30;99.90
12434;DHT22;6281;49.038;8.372;2023-03-26T10:14:34;14.90;99.90
12434;DHT22;6281;49.038;8.372;2023-03-26T10:17:13;16.10;99.90
12434;DHT22;6281;49.038;8.372;2023-03-26T10:19:53;15.20;99.90
12434;DHT22;6281;49.038;8.372;2023-03-26T10:22:39;14.20;99.90
12434;DHT22;6281;49.038;8.372;2023-03-26T10:25:35;15.60;99.90
12434;DHT22;6281;49.038;8.372;2023-03-26T10:28:20;14.70;99.90
12434;DHT22;6281;49.038;8.372;2023-03-26T10:30:58;13.80;99.90
12434;DHT22;6281;49.038;8.372;2023-03-26T10:33:36;13.20;99.90
12434;DHT22;6281;49.038;8.372;2023-03-26T10:36:26;12.50;99.90
12434;DHT22;6281;49.038;8.372;2023-03-26T10:39:15;13.50;99.90
12434;DHT22;6281;49.038;8.372;2023-03-26T10:41:55;14.30;99.90
12434;DHT22;6281;49.038;8.372;2023-03-26T10:44:36;14.10;99.90
12434;DHT22;6281;49.038;8.372;2023-03-26T10:47:24;15.90;99.90
12434;DHT22;6281;49.038;8.372;2023-03-26T10:50:18;16.20;95.30
12434;DHT22;6281;49.038;8.372;2023-03-26T10:52:52;15.60;95.30
12434;DHT22;6281;49.038;8.372;2023-03-26T10:55:21;15.70;98.30
12434;DHT22;6281;49.038;8.372;2023-03-26T10:57:52;15.70;88.50
12434;DHT22;6281;49.038;8.372;2023-03-26T11:00:23;16.10;80.90
12434;DHT22;6281;49.038;8.372;2023-03-26T11:05:56;16.60;71.60
12434;DHT22;6281;49.038;8.372;2023-03-26T11:08:31;15.70;71.80
12434;DHT22;6281;49.038;8.372;2023-03-26T11:11:04;15.40;76.70
12434;DHT22;6281;49.038;8.372;2023-03-26T11:13:44;13.60;82.40
12434;DHT22;6281;49.038;8.372;2023-03-26T11:16:18;15.10;74.70
12434;DHT22;6281;49.038;8.372;2023-03-26T11:18:53;16.40;66.50
12434;DHT22;6281;49.038;8.372;2023-03-26T11:21:25;15.40;70.00
12434;DHT22;6281;49.038;8.372;2023-03-26T11:24:04;14.90;73.70
12434;DHT22;6281;49.038;8.372;2023-03-26T11:26:41;14.90;77.20
12434;DHT22;6281;49.038;8.372;2023-03-26T11:29:24;17.00;68.00
12434;DHT22;6281;49.038;8.372;2023-03-26T11:32:01;17.80;69.50
12434;DHT22;6281;49.038;8.372;2023-03-26T11:34:34;15.20;72.60
12434;DHT22;6281;49.038;8.372;2023-03-26T11:37:05;16.10;70.40
12434;DHT22;6281;49.038;8.372;2023-03-26T11:39:42;14.80;68.70
12434;DHT22;6281;49.038;8.372;2023-03-26T11:42:13;16.10;70.40
12434;DHT22;6281;49.038;8.372;2023-03-26T11:44:45;15.90;66.20
12434;DHT22;6281;49.038;8.372;2023-03-26T11:47:19;15.70;68.70
12434;DHT22;6281;49.038;8.372;2023-03-26T11:49:50;15.70;70.10
12434;DHT22;6281;49.038;8.372;2023-03-26T11:52:19;15.10;70.00
12434;DHT22;6281;49.038;8.372;2023-03-26T11:54:46;15.20;70.40
12434;DHT22;6281;49.038;8.372;2023-03-26T11:57:18;15.00;70.40
12434;DHT22;6281;49.038;8.372;2023-03-26T11:59:50;14.80;71.60
12434;DHT22;6281;49.038;8.372;2023-03-26T12:02:26;14.70;74.80
12434;DHT22;6281;49.038;8.372;2023-03-26T12:05:12;14.70;78.50
12434;DHT22;6281;49.038;8.372;2023-03-26T12:07:45;15.00;78.90
12434;DHT22;6281;49.038;8.372;2023-03-26T12:10:26;14.70;91.80
12434;DHT22;6281;49.038;8.372;2023-03-26T12:12:57;15.50;90.20
12434;DHT22;6281;49.038;8.372;2023-03-26T12:15:25;15.00;82.20
12434;DHT22;6281;49.038;8.372;2023-03-26T12:17:56;15.00;86.00
12434;DHT22;6281;49.038;8.372;2023-03-26T12:20:32;15.20;83.00
12434;DHT22;6281;49.038;8.372;2023-03-26T12:23:01;15.20;82.90
12434;DHT22;6281;49.038;8.372;2023-03-26T12:25:31;15.40;77.70
12434;DHT22;6281;49.038;8.372;2023-03-26T12:28:00;15.10;75.70
12434;DHT22;6281;49.038;8.372;2023-03-26T12:30:29;16.00;77.20
12434;DHT22;6281;49.038;8.372;2023-03-26T12:33:01;15.80;75.90
12434;DHT22;6281;49.038;8.372;2023-03-26T12:35:31;16.20;79.50
12434;DHT22;6281;49.038;8.372;2023-03-26T12:38:20;16.40;72.50
12434;DHT22;6281;49.038;8.372;2023-03-26T12:40:49;15.30;73.70
12434;DHT22;6281;49.038;8.372;2023-03-26T12:43:43;15.60;72.50
12434;DHT22;6281;49.038;8.372;2023-03-26T12:46:25;16.20;73.80
12434;DHT22;6281;49.038;8.372;2023-03-26T12:48:54;16.20;70.30
12434;DHT22;6281;49.038;8.372;2023-03-26T12:51:32;16.60;73.40
12434;DHT22;6281;49.038;8.372;2023-03-26T12:54:17;15.70;73.50
12434;DHT22;6281;49.038;8.372;2023-03-26T12:56:54;15.90;76.30
12434;DHT22;6281;49.038;8.372;2023-03-26T12:59:41;15.70;70.80
12434;DHT22;6281;49.038;8.372;2023-03-26T13:02:26;15.60;71.50
12434;DHT22;6281;49.038;8.372;2023-03-26T13:05:07;16.00;71.10
12434;DHT22;6281;49.038;8.372;2023-03-26T13:07:56;15.70;73.00
12434;DHT22;6281;49.038;8.372;2023-03-26T13:10:37;15.10;73.10
12434;DHT22;6281;49.038;8.372;2023-03-26T13:13:16;14.90;74.20
12434;DHT22;6281;49.038;8.372;2023-03-26T13:15:47;14.60;74.30
12434;DHT22;6281;49.038;8.372;2023-03-26T13:18:22;14.40;77.80
12434;DHT22;6281;49.038;8.372;2023-03-26T13:20:56;14.60;79.90
12434;DHT22;6281;49.038;8.372;2023-03-26T13:23:34;14.40;80.30
12434;DHT22;6281;49.038;8.372;2023-03-26T13:26:15;14.20;81.10
12434;DHT22;6281;49.038;8.372;2023-03-26T13:28:49;14.30;86.20
12434;DHT22;6281;49.038;8.372;2023-03-26T13:31:22;14.00;86.00
12434;DHT22;6281;49.038;8.372;2023-03-26T13:33:56;13.90;90.50
12434;DHT22;6281;49.038;8.372;2023-03-26T13:36:32;14.00;89.10
12434;DHT22;6281;49.038;8.372;2023-03-26T13:39:08;14.00;90.90
12434;DHT22;6281;49.038;8.372;2023-03-26T13:41:50;13.80;90.50
12434;DHT22;6281;49.038;8.372;2023-03-26T13:44:26;13.70;87.10
12434;DHT22;6281;49.038;8.372;2023-03-26T13:46:59;13.50;92.90
12434;DHT22;6281;49.038;8.372;2023-03-26T13:49:33;13.50;99.90
12434;DHT22;6281;49.038;8.372;2023-03-26T13:52:06;13.00;99.00
12434;DHT22;6281;49.038;8.372;2023-03-26T13:54:36;12.90;99.90
12434;DHT22;6281;49.038;8.372;2023-03-26T13:57:08;12.90;99.90
12434;DHT22;6281;49.038;8.372;2023-03-26T13:59:42;12.70;99.90
12434;DHT22;6281;49.038;8.372;2023-03-26T14:02:19;12.50;99.90
12434;DHT22;6281;49.038;8.372;2023-03-26T14:04:51;12.00;99.90
12434;DHT22;6281;49.038;8.372;2023-03-26T14:07:22;11.20;99.90
12434;DHT22;6281;49.038;8.372;2023-03-26T14:09:54;10.90;99.90
12434;DHT22;6281;49.038;8.372;2023-03-26T14:12:31;10.30;99.90
12434;DHT22;6281;49.038;8.372;2023-03-26T14:15:01;9.90;99.90
12434;DHT22;6281;49.038;8.372;2023-03-26T14:17:35;9.50;99.90
12434;DHT22;6281;49.038;8.372;2023-03-26T14:20:22;9.10;99.90
12434;DHT22;6281;49.038;8.372;2023-03-26T14:23:05;9.00;99.90
12434;DHT22;6281;49.038;8.372;2023-03-26T14:25:48;8.70;99.90
12434;DHT22;6281;49.038;8.372;2023-03-26T14:28:45;8.10;99.90
12434;DHT22;6281;49.038;8.372;2023-03-26T14:31:17;8.20;99.90
12434;DHT22;6281;49.038;8.372;2023-03-26T14:34:01;8.20;99.90
12434;DHT22;6281;49.038;8.372;2023-03-26T14:36:58;7.90;99.90
12434;DHT22;6281;49.038;8.372;2023-03-26T14:39:45;7.90;99.90
12434;DHT22;6281;49.038;8.372;2023-03-26T14:42:22;7.70;99.90
12434;DHT22;6281;49.038;8.372;2023-03-26T14:45:05;7.90;99.90
12434;DHT22;6281;49.038;8.372;2023-03-26T14:47:36;8.00;99.90
12434;DHT22;6281;49.038;8.372;2023-03-26T14:53:15;8.50;99.90
12434;DHT22;6281;49.038;8.372;2023-03-26T14:56:22;8.40;99.90
12434;DHT22;6281;49.038;8.372;2023-03-26T14:59:14;8.30;99.90
12434;DHT22;6281;49.038;8.372;2023-03-26T15:02:34;8.10;99.90
12434;DHT22;6281;49.038;8.372;2023-03-26T15:08:45;8.00;99.90
12434;DHT22;6281;49.038;8.372;2023-03-26T15:11:27;8.10;99.90
12434;DHT22;6281;49.038;8.372;2023-03-26T15:14:21;8.10;99.90
12434;DHT22;6281;49.038;8.372;2023-03-26T15:17:11;8.20;99.90
12434;DHT22;6281;49.038;8.372;2023-03-26T15:23:18;8.20;99.90
12434;DHT22;6281;49.038;8.372;2023-03-26T15:29:02;8.10;99.90
12434;DHT22;6281;49.038;8.372;2023-03-26T15:31:48;7.90;99.90
12434;DHT22;6281;49.038;8.372;2023-03-26T15:34:30;8.10;99.90
12434;DHT22;6281;49.038;8.372;2023-03-26T15:37:39;8.10;99.90
12434;DHT22;6281;49.038;8.372;2023-03-26T15:40:31;8.10;99.90
12434;DHT22;6281;49.038;8.372;2023-03-26T15:43:10;8.20;99.90
12434;DHT22;6281;49.038;8.372;2023-03-26T15:45:39;8.10;99.90
12434;DHT22;6281;49.038;8.372;2023-03-26T15:48:28;8.20;99.90
12434;DHT22;6281;49.038;8.372;2023-03-26T15:51:11;8.10;99.90
12434;DHT22;6281;49.038;8.372;2023-03-26T15:53:46;8.10;99.90
12434;DHT22;6281;49.038;8.372;2023-03-26T15:56:24;8.10;99.90
12434;DHT22;6281;49.038;8.372;2023-03-26T15:59:00;8.10;99.90
12434;DHT22;6281;49.038;8.372;2023-03-26T16:01:41;8.20;99.90
12434;DHT22;6281;49.038;8.372;2023-03-26T16:04:18;8.10;99.90
12434;DHT22;6281;49.038;8.372;2023-03-26T16:06:55;8.10;99.90
12434;DHT22;6281;49.038;8.372;2023-03-26T16:09:47;8.20;99.90
12434;DHT22;6281;49.038;8.372;2023-03-26T16:12:31;8.20;99.90
12434;DHT22;6281;49.038;8.372;2023-03-26T16:15:30;8.10;99.90
12434;DHT22;6281;49.038;8.372;2023-03-26T16:18:24;8.10;99.90
12434;DHT22;6281;49.038;8.372;2023-03-26T16:20:52;8.10;99.90
12434;DHT22;6281;49.038;8.372;2023-03-26T16:23:26;8.10;99.90
12434;DHT22;6281;49.038;8.372;2023-03-26T16:25:57;8.10;99.90
12434;DHT22;6281;49.038;8.372;2023-03-26T16:28:30;8.10;99.90
12434;DHT22;6281;49.038;8.372;2023-03-26T16:31:21;8.10;99.90
12434;DHT22;6281;49.038;8.372;2023-03-26T16:33:52;8.10;99.90
12434;DHT22;6281;49.038;8.372;2023-03-26T16:36:27;8.10;99.90
12434;DHT22;6281;49.038;8.372;2023-03-26T16:39:18;8.20;99.90
12434;DHT22;6281;49.038;8.372;2023-03-26T16:42:00;8.40;99.90
12434;DHT22;6281;49.038;8.372;2023-03-26T16:44:35;8.30;99.90
12434;DHT22;6281;49.038;8.372;2023-03-26T16:47:14;8.30;99.90
12434;DHT22;6281;49.038;8.372;2023-03-26T16:49:52;8.20;99.90
12434;DHT22;6281;49.038;8.372;2023-03-26T16:52:32;8.20;99.90
12434;DHT22;6281;49.038;8.372;2023-03-26T16:55:05;8.20;99.90
12434;DHT22;6281;49.038;8.372;2023-03-26T16:57:44;8.40;99.90
12434;DHT22;6281;49.038;8.372;2023-03-26T17:03:30;8.20;99.90
12434;DHT22;6281;49.038;8.372;2023-03-26T17:06:22;8.20;99.90
12434;DHT22;6281;49.038;8.372;2023-03-26T17:08:59;8.30;99.90
12434;DHT22;6281;49.038;8.372;2023-03-26T17:11:34;8.40;99.90
12434;DHT22;6281;49.038;8.372;2023-03-26T17:14:25;8.30;99.90
12434;DHT22;6281;49.038;8.372;2023-03-26T17:17:08;8.40;99.90
12434;DHT22;6281;49.038;8.372;2023-03-26T17:19:46;8.30;99.90
12434;DHT22;6281;49.038;8.372;2023-03-26T17:22:24;8.30;99.90
12434;DHT22;6281;49.038;8.372;2023-03-26T17:24:55;8.30;99.90
12434;DHT22;6281;49.038;8.372;2023-03-26T17:27:28;8.30;99.90
12434;DHT22;6281;49.038;8.372;2023-03-26T17:30:02;8.20;99.90
12434;DHT22;6281;49.038;8.372;2023-03-26T17:32:50;8.30;99.90